Wednesday, November 26, 2014
06:26 UTC
  |  Log In   |  Register Free
Airport Search:

Ellington Airport
(KEFD)

FAA data valid effective November 13, 2014 - January 08, 2015 (unless otherwise noted).

 
 
 
 
 
 
 
 
 
 
 
 
 
 

Current Aviation Weather for Ellington Airport (KEFD)

The most recent METAR observation for KEFD was updated at: 0520
METAR Summary (Translated METAR)
KEFD
260450Z 18004KT 10SM CLR 10/04 A3026
KHOU
260453Z 19007KT 10SM CLR 10/04 A3024 RMK AO2 SLP244 T01000039
(6.7 nm NW from KEFD)
KLVJ
260453Z AUTO 18005KT 10SM CLR 08/04 A3026 RMK AO2 SLP246 T00780044
(6.8 nm SW from KEFD)
TAF Summary (Translated TAF)
KEFD
2604/2710 31006KT 9999 SKC QNH3019INS BECMG 2617/2618 30012G18KT 9999 SKC QNH3018INS BECMG 2701/2702 VRB06KT 9999 SKC QNH3025INS TX19/2620Z TN06/2611Z
KHOU
(6.7 nm NW from KEFD)
260520Z 2606/2706 19007KT P6SM SKC FM261500 23010KT P6SM SKC FM262300 VRB03KT P6SM SKC FM270330 35005KT P6SM SKC
  Airport Weather Conditions for KEFD

 Current Weather at EFD
50° F
Fair
South winds at 3.5 mph
EFD NOAA Radar

Pressure: 30.25 in
Humidity: 67%
Wind: South at 3.5 MPH (3 KT)
Dew Point: 39.2°F
Visibility: 10.00 mi


Airport Weather Forecast for KEFD

Translated METAR and TAF for KEFD
Translated METAR for KEFD (0621 UTC 26 November 2014)
found at http://aviationweather.gov/adds/metars/
 
METAR text: KEFD 260550Z 18003KT 10SM CLR 10/04 A3025
Conditions at: KEFD (HOUSTON/ELLINGTO, TX, US) observed 0550 UTC 26 November 2014
Temperature: 10.0°C (50°F)
Dewpoint: 4.0°C (39°F) [RH = 66%]
Pressure (altimeter): 30.25 inches Hg (1024.5 mb)
Winds: from the S (180 degrees) at 3 MPH (3 knots; 1.6 m/s)
Visibility: 10 or more miles (16+ km)
Ceiling: at least 12,000 feet AGL
Clouds: sky clear below 12,000 feet AGL
Weather: no significant weather observed at this time
Translated TAF for KEFD
Forecast for: KEFD (HOUSTON/ELLINGTO, TX, US)
TAF Text: TAF KEFD 2604/2710 31006KT 9999 SKC QNH3019INS
Forecast period: 0400 to 1700 UTC 26 November 2014
Forecast type: FROM: standard forecast or significant change
Winds: from the NW (310 degrees) at 7 MPH (6 knots; 3.1 m/s)
Visibility: 6 or more miles (10+ km)
Clouds: clear skies
Weather: no significant weather forecast for this period
TAF Text: BECMG 2617/2618 30012G18KT 9999 SKC QNH3018INS
Forecast period: 1700 UTC 26 November 2014 to 0100 UTC 27 November 2014
Forecast type: BECOMING: Conditions expected to become as follows by 1800 UTC 26 November 2014
Winds: from the WNW (300 degrees) at 14 MPH (12 knots; 6.2 m/s)
gusting to 21 MPH (18 knots; 9.4 m/s)
Visibility: 6 or more miles (10+ km)
Clouds: clear skies
Weather: no significant weather forecast for this period
TAF Text: BECMG 2701/2702 VRB06KT 9999 SKC QNH3025INS TX19/2620Z TN06/2611Z
Forecast period: 0100 to 1000 UTC 27 November 2014
Forecast type: BECOMING: Conditions expected to become as follows by 0200 UTC 27 November 2014
Winds: variable direction winds at 7 MPH (6 knots; 3.1 m/s)
Visibility: 6 or more miles (10+ km)
Clouds: clear skies
Weather: no significant weather forecast for this period

Find All Airport Services Find A Hotel Find A Rental Car Find A Golf Course Find A Restaurant $100 Hamburger



FBO's on the Field
FBO Company Facility Photos Services Transportation Aviation Fuel Prices: Prices include tax
Catering Weather Repair Courtesy Rental Type 100LL JetA JetA+ MOGAS 8087
 
Southwest Airport Services

This FBO has not yet been rated
FS:Independent
Last Updated: Nov-14
Login to update fuel prices
SS:
Contact Southwest Airport ServicesMore FBO Information
 
Add another FBO Facility Photos Catering Weather Repair Courtesy Rental Type 100LL JetA JetA+ MOGAS 8087
Services Transportation Aviation Fuel Prices: Prices include tax


model-print
model-print
model-print
model-print